sensor_id;sensor_type;location;lat;lon;timestamp;P1;durP1;ratioP1;P2;durP2;ratioP2
10343;SDS011;5217;43.960;10.954;2023-03-14T00:01:17;8.33;;;3.90;;
10343;SDS011;5217;43.960;10.954;2023-03-14T00:03:47;7.55;;;3.70;;
10343;SDS011;5217;43.960;10.954;2023-03-14T00:06:16;8.68;;;3.90;;
10343;SDS011;5217;43.960;10.954;2023-03-14T00:08:46;10.03;;;4.13;;
10343;SDS011;5217;43.960;10.954;2023-03-14T00:11:15;8.80;;;3.63;;
10343;SDS011;5217;43.960;10.954;2023-03-14T00:13:46;9.32;;;3.80;;
10343;SDS011;5217;43.960;10.954;2023-03-14T00:16:16;8.57;;;3.63;;
10343;SDS011;5217;43.960;10.954;2023-03-14T00:18:46;11.50;;;4.10;;
10343;SDS011;5217;43.960;10.954;2023-03-14T00:21:15;11.10;;;3.73;;
10343;SDS011;5217;43.960;10.954;2023-03-14T00:23:44;9.53;;;3.77;;
10343;SDS011;5217;43.960;10.954;2023-03-14T00:26:13;10.73;;;4.00;;
10343;SDS011;5217;43.960;10.954;2023-03-14T00:28:44;9.70;;;3.60;;
10343;SDS011;5217;43.960;10.954;2023-03-14T00:31:14;10.90;;;4.13;;
10343;SDS011;5217;43.960;10.954;2023-03-14T00:33:44;11.00;;;4.30;;
10343;SDS011;5217;43.960;10.954;2023-03-14T00:36:15;11.10;;;4.77;;
10343;SDS011;5217;43.960;10.954;2023-03-14T00:38:45;12.03;;;4.37;;
10343;SDS011;5217;43.960;10.954;2023-03-14T00:41:15;9.33;;;4.10;;
10343;SDS011;5217;43.960;10.954;2023-03-14T00:43:45;12.27;;;4.43;;
10343;SDS011;5217;43.960;10.954;2023-03-14T00:46:14;9.00;;;4.27;;
10343;SDS011;5217;43.960;10.954;2023-03-14T00:48:44;9.87;;;4.30;;
10343;SDS011;5217;43.960;10.954;2023-03-14T00:51:13;8.43;;;3.73;;
10343;SDS011;5217;43.960;10.954;2023-03-14T00:53:42;8.27;;;3.77;;
10343;SDS011;5217;43.960;10.954;2023-03-14T00:56:12;9.70;;;3.90;;
10343;SDS011;5217;43.960;10.954;2023-03-14T00:58:41;9.10;;;4.07;;
10343;SDS011;5217;43.960;10.954;2023-03-14T01:01:10;7.77;;;3.53;;
10343;SDS011;5217;43.960;10.954;2023-03-14T01:03:42;9.43;;;3.60;;
10343;SDS011;5217;43.960;10.954;2023-03-14T01:06:11;7.63;;;3.20;;
10343;SDS011;5217;43.960;10.954;2023-03-14T01:08:41;6.10;;;3.10;;
10343;SDS011;5217;43.960;10.954;2023-03-14T01:11:11;8.97;;;3.70;;
10343;SDS011;5217;43.960;10.954;2023-03-14T01:13:41;9.40;;;3.33;;
10343;SDS011;5217;43.960;10.954;2023-03-14T01:16:10;7.60;;;3.60;;
10343;SDS011;5217;43.960;10.954;2023-03-14T01:18:42;8.60;;;3.23;;
10343;SDS011;5217;43.960;10.954;2023-03-14T01:21:12;8.07;;;3.67;;
10343;SDS011;5217;43.960;10.954;2023-03-14T01:23:42;6.90;;;3.23;;
10343;SDS011;5217;43.960;10.954;2023-03-14T01:26:11;6.90;;;3.30;;
10343;SDS011;5217;43.960;10.954;2023-03-14T01:28:41;7.13;;;3.10;;
10343;SDS011;5217;43.960;10.954;2023-03-14T01:31:10;8.20;;;3.20;;
10343;SDS011;5217;43.960;10.954;2023-03-14T01:33:39;6.83;;;3.30;;
10343;SDS011;5217;43.960;10.954;2023-03-14T01:36:10;9.33;;;3.50;;
10343;SDS011;5217;43.960;10.954;2023-03-14T01:38:39;8.70;;;3.20;;
10343;SDS011;5217;43.960;10.954;2023-03-14T01:41:12;7.73;;;3.00;;
10343;SDS011;5217;43.960;10.954;2023-03-14T01:43:42;7.30;;;3.20;;
10343;SDS011;5217;43.960;10.954;2023-03-14T01:49:05;7.40;;;2.80;;
10343;SDS011;5217;43.960;10.954;2023-03-14T01:51:49;7.70;;;3.20;;
10343;SDS011;5217;43.960;10.954;2023-03-14T01:54:22;4.77;;;2.97;;
10343;SDS011;5217;43.960;10.954;2023-03-14T01:56:55;7.03;;;3.00;;
10343;SDS011;5217;43.960;10.954;2023-03-14T01:59:26;5.87;;;2.93;;
10343;SDS011;5217;43.960;10.954;2023-03-14T02:01:56;8.07;;;3.37;;
10343;SDS011;5217;43.960;10.954;2023-03-14T02:04:26;6.60;;;3.37;;
10343;SDS011;5217;43.960;10.954;2023-03-14T02:06:59;6.57;;;3.17;;
10343;SDS011;5217;43.960;10.954;2023-03-14T02:09:31;5.63;;;2.83;;
10343;SDS011;5217;43.960;10.954;2023-03-14T02:12:00;6.53;;;2.93;;
10343;SDS011;5217;43.960;10.954;2023-03-14T02:14:30;6.13;;;2.60;;
10343;SDS011;5217;43.960;10.954;2023-03-14T02:17:00;5.90;;;3.00;;
10343;SDS011;5217;43.960;10.954;2023-03-14T02:19:43;8.10;;;3.43;;
10343;SDS011;5217;43.960;10.954;2023-03-14T02:22:21;6.60;;;2.90;;
10343;SDS011;5217;43.960;10.954;2023-03-14T02:24:50;6.87;;;3.00;;
10343;SDS011;5217;43.960;10.954;2023-03-14T02:27:31;6.93;;;2.87;;
10343;SDS011;5217;43.960;10.954;2023-03-14T02:30:02;8.40;;;3.43;;
10343;SDS011;5217;43.960;10.954;2023-03-14T02:32:34;6.03;;;2.97;;
10343;SDS011;5217;43.960;10.954;2023-03-14T02:35:06;8.43;;;3.00;;
10343;SDS011;5217;43.960;10.954;2023-03-14T02:37:38;5.87;;;3.00;;
10343;SDS011;5217;43.960;10.954;2023-03-14T02:40:10;7.53;;;3.10;;
10343;SDS011;5217;43.960;10.954;2023-03-14T02:42:40;6.23;;;3.07;;
10343;SDS011;5217;43.960;10.954;2023-03-14T02:48:11;7.30;;;3.33;;
10343;SDS011;5217;43.960;10.954;2023-03-14T02:50:43;5.73;;;2.87;;
10343;SDS011;5217;43.960;10.954;2023-03-14T02:53:15;6.27;;;3.00;;
10343;SDS011;5217;43.960;10.954;2023-03-14T02:55:46;6.10;;;2.80;;
10343;SDS011;5217;43.960;10.954;2023-03-14T02:58:17;5.10;;;2.90;;
10343;SDS011;5217;43.960;10.954;2023-03-14T03:00:47;7.07;;;2.93;;
10343;SDS011;5217;43.960;10.954;2023-03-14T03:03:16;7.03;;;3.50;;
10343;SDS011;5217;43.960;10.954;2023-03-14T03:05:47;7.63;;;2.90;;
10343;SDS011;5217;43.960;10.954;2023-03-14T03:08:17;5.23;;;2.67;;
10343;SDS011;5217;43.960;10.954;2023-03-14T03:10:45;5.73;;;2.80;;
10343;SDS011;5217;43.960;10.954;2023-03-14T03:13:14;6.43;;;2.70;;
10343;SDS011;5217;43.960;10.954;2023-03-14T03:15:45;7.33;;;3.13;;
10343;SDS011;5217;43.960;10.954;2023-03-14T03:18:14;5.40;;;2.63;;
10343;SDS011;5217;43.960;10.954;2023-03-14T03:20:42;7.10;;;3.00;;
10343;SDS011;5217;43.960;10.954;2023-03-14T03:23:11;4.93;;;2.50;;
10343;SDS011;5217;43.960;10.954;2023-03-14T03:25:39;5.20;;;2.77;;
10343;SDS011;5217;43.960;10.954;2023-03-14T03:28:08;6.00;;;2.70;;
10343;SDS011;5217;43.960;10.954;2023-03-14T03:30:40;6.30;;;2.90;;
10343;SDS011;5217;43.960;10.954;2023-03-14T03:33:09;7.03;;;3.00;;
10343;SDS011;5217;43.960;10.954;2023-03-14T03:35:42;5.87;;;2.67;;
10343;SDS011;5217;43.960;10.954;2023-03-14T03:38:12;6.60;;;2.77;;
10343;SDS011;5217;43.960;10.954;2023-03-14T03:40:41;5.47;;;2.43;;
10343;SDS011;5217;43.960;10.954;2023-03-14T03:43:09;5.07;;;2.40;;
10343;SDS011;5217;43.960;10.954;2023-03-14T03:45:38;6.50;;;2.90;;
10343;SDS011;5217;43.960;10.954;2023-03-14T03:48:09;6.97;;;2.60;;
10343;SDS011;5217;43.960;10.954;2023-03-14T03:50:43;5.63;;;2.90;;
10343;SDS011;5217;43.960;10.954;2023-03-14T03:53:12;5.30;;;2.60;;
10343;SDS011;5217;43.960;10.954;2023-03-14T03:55:57;4.70;;;2.40;;
10343;SDS011;5217;43.960;10.954;2023-03-14T03:58:27;8.53;;;2.73;;
10343;SDS011;5217;43.960;10.954;2023-03-14T04:00:58;5.33;;;2.60;;
10343;SDS011;5217;43.960;10.954;2023-03-14T04:03:27;7.30;;;3.00;;
10343;SDS011;5217;43.960;10.954;2023-03-14T04:05:58;7.63;;;2.67;;
10343;SDS011;5217;43.960;10.954;2023-03-14T04:08:28;6.97;;;2.57;;
10343;SDS011;5217;43.960;10.954;2023-03-14T04:10:58;5.73;;;2.77;;
10343;SDS011;5217;43.960;10.954;2023-03-14T04:13:27;6.50;;;2.43;;
10343;SDS011;5217;43.960;10.954;2023-03-14T04:15:57;6.90;;;2.90;;
10343;SDS011;5217;43.960;10.954;2023-03-14T04:18:26;7.57;;;3.23;;
10343;SDS011;5217;43.960;10.954;2023-03-14T04:20:57;6.00;;;2.50;;
10343;SDS011;5217;43.960;10.954;2023-03-14T04:23:25;8.10;;;3.13;;
10343;SDS011;5217;43.960;10.954;2023-03-14T04:25:54;8.73;;;3.00;;
10343;SDS011;5217;43.960;10.954;2023-03-14T04:28:22;8.43;;;2.97;;
10343;SDS011;5217;43.960;10.954;2023-03-14T04:30:51;5.73;;;2.70;;
10343;SDS011;5217;43.960;10.954;2023-03-14T04:33:21;7.00;;;2.80;;
10343;SDS011;5217;43.960;10.954;2023-03-14T04:35:52;6.70;;;2.80;;
10343;SDS011;5217;43.960;10.954;2023-03-14T04:38:21;6.40;;;2.73;;
10343;SDS011;5217;43.960;10.954;2023-03-14T04:40:50;8.20;;;2.73;;
10343;SDS011;5217;43.960;10.954;2023-03-14T04:43:18;7.57;;;3.03;;
10343;SDS011;5217;43.960;10.954;2023-03-14T04:45:47;7.63;;;2.93;;
10343;SDS011;5217;43.960;10.954;2023-03-14T04:48:15;6.70;;;2.50;;
10343;SDS011;5217;43.960;10.954;2023-03-14T04:50:47;5.80;;;2.67;;
10343;SDS011;5217;43.960;10.954;2023-03-14T04:53:17;8.07;;;3.10;;
10343;SDS011;5217;43.960;10.954;2023-03-14T04:55:49;4.63;;;2.30;;
10343;SDS011;5217;43.960;10.954;2023-03-14T04:58:18;4.63;;;2.33;;
10343;SDS011;5217;43.960;10.954;2023-03-14T05:00:47;9.20;;;3.43;;
10343;SDS011;5217;43.960;10.954;2023-03-14T05:03:16;6.00;;;2.60;;
10343;SDS011;5217;43.960;10.954;2023-03-14T05:05:47;6.43;;;2.93;;
10343;SDS011;5217;43.960;10.954;2023-03-14T05:08:15;8.47;;;3.23;;
10343;SDS011;5217;43.960;10.954;2023-03-14T05:10:43;8.83;;;3.17;;
10343;SDS011;5217;43.960;10.954;2023-03-14T05:13:12;7.33;;;2.97;;
10343;SDS011;5217;43.960;10.954;2023-03-14T05:15:40;8.60;;;3.13;;
10343;SDS011;5217;43.960;10.954;2023-03-14T05:18:12;7.17;;;3.20;;
10343;SDS011;5217;43.960;10.954;2023-03-14T05:20:41;6.70;;;3.03;;
10343;SDS011;5217;43.960;10.954;2023-03-14T05:23:12;7.57;;;3.03;;
10343;SDS011;5217;43.960;10.954;2023-03-14T05:25:42;11.67;;;4.00;;
10343;SDS011;5217;43.960;10.954;2023-03-14T05:28:10;6.73;;;2.80;;
10343;SDS011;5217;43.960;10.954;2023-03-14T05:30:39;7.17;;;3.10;;
10343;SDS011;5217;43.960;10.954;2023-03-14T05:33:07;5.77;;;2.87;;
10343;SDS011;5217;43.960;10.954;2023-03-14T05:35:37;6.93;;;2.70;;
10343;SDS011;5217;43.960;10.954;2023-03-14T05:38:05;7.47;;;3.03;;
10343;SDS011;5217;43.960;10.954;2023-03-14T05:40:35;6.23;;;2.83;;
10343;SDS011;5217;43.960;10.954;2023-03-14T05:43:04;5.03;;;2.50;;
10343;SDS011;5217;43.960;10.954;2023-03-14T05:45:34;6.13;;;2.60;;
10343;SDS011;5217;43.960;10.954;2023-03-14T05:48:03;7.43;;;2.63;;
10343;SDS011;5217;43.960;10.954;2023-03-14T05:50:32;5.63;;;2.87;;
10343;SDS011;5217;43.960;10.954;2023-03-14T05:53:00;7.03;;;2.93;;
10343;SDS011;5217;43.960;10.954;2023-03-14T05:55:29;5.50;;;3.00;;
10343;SDS011;5217;43.960;10.954;2023-03-14T05:57:59;10.63;;;3.53;;
10343;SDS011;5217;43.960;10.954;2023-03-14T06:00:27;7.23;;;2.87;;
10343;SDS011;5217;43.960;10.954;2023-03-14T06:02:56;7.37;;;3.20;;
10343;SDS011;5217;43.960;10.954;2023-03-14T06:05:24;5.73;;;2.63;;
10343;SDS011;5217;43.960;10.954;2023-03-14T06:07:52;7.90;;;3.03;;
10343;SDS011;5217;43.960;10.954;2023-03-14T06:10:21;8.13;;;3.30;;
10343;SDS011;5217;43.960;10.954;2023-03-14T06:12:49;11.10;;;3.57;;
10343;SDS011;5217;43.960;10.954;2023-03-14T06:15:19;7.17;;;2.90;;
10343;SDS011;5217;43.960;10.954;2023-03-14T06:17:51;6.27;;;2.83;;
10343;SDS011;5217;43.960;10.954;2023-03-14T06:20:22;7.93;;;3.20;;
10343;SDS011;5217;43.960;10.954;2023-03-14T06:22:50;8.00;;;3.27;;
10343;SDS011;5217;43.960;10.954;2023-03-14T06:25:19;8.07;;;3.43;;
10343;SDS011;5217;43.960;10.954;2023-03-14T06:27:47;6.07;;;2.97;;
10343;SDS011;5217;43.960;10.954;2023-03-14T06:30:16;7.53;;;3.60;;
10343;SDS011;5217;43.960;10.954;2023-03-14T06:32:46;7.93;;;3.43;;
10343;SDS011;5217;43.960;10.954;2023-03-14T06:35:15;6.07;;;2.83;;
10343;SDS011;5217;43.960;10.954;2023-03-14T06:37:44;9.43;;;3.23;;
10343;SDS011;5217;43.960;10.954;2023-03-14T06:40:12;7.63;;;2.90;;
10343;SDS011;5217;43.960;10.954;2023-03-14T06:42:44;6.53;;;2.93;;
10343;SDS011;5217;43.960;10.954;2023-03-14T06:45:13;8.60;;;3.70;;
10343;SDS011;5217;43.960;10.954;2023-03-14T06:47:42;8.33;;;3.93;;
10343;SDS011;5217;43.960;10.954;2023-03-14T06:50:12;11.17;;;5.90;;
10343;SDS011;5217;43.960;10.954;2023-03-14T06:52:41;8.40;;;5.30;;
10343;SDS011;5217;43.960;10.954;2023-03-14T06:55:14;8.83;;;5.50;;
10343;SDS011;5217;43.960;10.954;2023-03-14T06:57:45;9.67;;;5.57;;
10343;SDS011;5217;43.960;10.954;2023-03-14T07:00:14;9.70;;;5.10;;
10343;SDS011;5217;43.960;10.954;2023-03-14T07:02:43;9.17;;;5.07;;
10343;SDS011;5217;43.960;10.954;2023-03-14T07:05:13;8.40;;;5.10;;
10343;SDS011;5217;43.960;10.954;2023-03-14T07:07:42;11.70;;;5.30;;
10343;SDS011;5217;43.960;10.954;2023-03-14T07:10:11;9.17;;;4.97;;
10343;SDS011;5217;43.960;10.954;2023-03-14T07:12:39;8.77;;;4.67;;
10343;SDS011;5217;43.960;10.954;2023-03-14T07:15:08;8.53;;;4.17;;
10343;SDS011;5217;43.960;10.954;2023-03-14T07:17:44;8.17;;;3.70;;
10343;SDS011;5217;43.960;10.954;2023-03-14T07:20:16;6.73;;;3.47;;
10343;SDS011;5217;43.960;10.954;2023-03-14T07:22:46;8.13;;;3.47;;
10343;SDS011;5217;43.960;10.954;2023-03-14T07:25:15;8.03;;;4.00;;
10343;SDS011;5217;43.960;10.954;2023-03-14T07:27:44;8.07;;;4.10;;
10343;SDS011;5217;43.960;10.954;2023-03-14T07:30:14;9.40;;;6.00;;
10343;SDS011;5217;43.960;10.954;2023-03-14T07:32:43;11.00;;;5.63;;
10343;SDS011;5217;43.960;10.954;2023-03-14T07:35:11;9.10;;;5.50;;
10343;SDS011;5217;43.960;10.954;2023-03-14T07:37:41;7.97;;;4.33;;
10343;SDS011;5217;43.960;10.954;2023-03-14T07:40:10;6.70;;;4.10;;
10343;SDS011;5217;43.960;10.954;2023-03-14T07:42:41;8.47;;;4.17;;
10343;SDS011;5217;43.960;10.954;2023-03-14T07:45:10;9.13;;;4.03;;
10343;SDS011;5217;43.960;10.954;2023-03-14T07:47:39;9.00;;;3.90;;
10343;SDS011;5217;43.960;10.954;2023-03-14T07:50:08;7.73;;;3.73;;
10343;SDS011;5217;43.960;10.954;2023-03-14T07:52:37;6.47;;;3.60;;
10343;SDS011;5217;43.960;10.954;2023-03-14T07:55:07;9.00;;;4.67;;
10343;SDS011;5217;43.960;10.954;2023-03-14T07:57:36;9.33;;;4.20;;
10343;SDS011;5217;43.960;10.954;2023-03-14T08:00:05;8.37;;;4.07;;
10343;SDS011;5217;43.960;10.954;2023-03-14T08:02:35;7.37;;;4.17;;
10343;SDS011;5217;43.960;10.954;2023-03-14T08:05:04;8.73;;;5.83;;
10343;SDS011;5217;43.960;10.954;2023-03-14T08:07:33;10.37;;;6.20;;
10343;SDS011;5217;43.960;10.954;2023-03-14T08:10:02;9.70;;;5.07;;
10343;SDS011;5217;43.960;10.954;2023-03-14T08:12:33;9.53;;;5.87;;
10343;SDS011;5217;43.960;10.954;2023-03-14T08:15:01;10.60;;;5.83;;
10343;SDS011;5217;43.960;10.954;2023-03-14T08:17:29;10.53;;;4.87;;
10343;SDS011;5217;43.960;10.954;2023-03-14T08:19:58;7.97;;;5.23;;
10343;SDS011;5217;43.960;10.954;2023-03-14T08:22:26;7.83;;;4.70;;
10343;SDS011;5217;43.960;10.954;2023-03-14T08:24:55;8.97;;;4.23;;
10343;SDS011;5217;43.960;10.954;2023-03-14T08:27:23;8.90;;;3.97;;
10343;SDS011;5217;43.960;10.954;2023-03-14T08:29:53;6.50;;;3.73;;
10343;SDS011;5217;43.960;10.954;2023-03-14T08:32:22;9.83;;;6.03;;
10343;SDS011;5217;43.960;10.954;2023-03-14T08:34:50;10.63;;;6.80;;
10343;SDS011;5217;43.960;10.954;2023-03-14T08:37:18;12.23;;;6.93;;
10343;SDS011;5217;43.960;10.954;2023-03-14T08:39:52;11.00;;;6.07;;
10343;SDS011;5217;43.960;10.954;2023-03-14T08:42:21;9.47;;;5.57;;
10343;SDS011;5217;43.960;10.954;2023-03-14T08:44:50;10.27;;;5.27;;
10343;SDS011;5217;43.960;10.954;2023-03-14T08:47:20;12.63;;;8.43;;
10343;SDS011;5217;43.960;10.954;2023-03-14T08:49:48;14.67;;;10.07;;
10343;SDS011;5217;43.960;10.954;2023-03-14T08:52:17;15.07;;;10.00;;
10343;SDS011;5217;43.960;10.954;2023-03-14T08:54:46;18.13;;;11.63;;
10343;SDS011;5217;43.960;10.954;2023-03-14T08:57:14;18.17;;;11.20;;
10343;SDS011;5217;43.960;10.954;2023-03-14T08:59:43;16.60;;;10.63;;
10343;SDS011;5217;43.960;10.954;2023-03-14T09:02:11;15.93;;;9.13;;
10343;SDS011;5217;43.960;10.954;2023-03-14T09:04:41;12.83;;;7.20;;
10343;SDS011;5217;43.960;10.954;2023-03-14T09:07:09;11.93;;;7.03;;
10343;SDS011;5217;43.960;10.954;2023-03-14T09:09:38;11.87;;;8.23;;
10343;SDS011;5217;43.960;10.954;2023-03-14T09:12:06;14.00;;;8.23;;
10343;SDS011;5217;43.960;10.954;2023-03-14T09:14:35;10.27;;;6.97;;
10343;SDS011;5217;43.960;10.954;2023-03-14T09:17:04;10.17;;;5.40;;
10343;SDS011;5217;43.960;10.954;2023-03-14T09:19:32;9.20;;;4.37;;
10343;SDS011;5217;43.960;10.954;2023-03-14T09:22:02;7.33;;;4.70;;
10343;SDS011;5217;43.960;10.954;2023-03-14T09:24:31;10.47;;;5.43;;
10343;SDS011;5217;43.960;10.954;2023-03-14T09:26:59;9.47;;;6.40;;
10343;SDS011;5217;43.960;10.954;2023-03-14T09:29:28;8.73;;;5.83;;
10343;SDS011;5217;43.960;10.954;2023-03-14T09:31:57;12.30;;;6.80;;
10343;SDS011;5217;43.960;10.954;2023-03-14T09:34:26;10.83;;;6.57;;
10343;SDS011;5217;43.960;10.954;2023-03-14T09:36:54;11.10;;;6.77;;
10343;SDS011;5217;43.960;10.954;2023-03-14T09:39:24;13.23;;;7.73;;
10343;SDS011;5217;43.960;10.954;2023-03-14T09:41:53;13.07;;;7.17;;
10343;SDS011;5217;43.960;10.954;2023-03-14T09:44:25;10.10;;;6.37;;
10343;SDS011;5217;43.960;10.954;2023-03-14T09:46:57;9.90;;;6.10;;
10343;SDS011;5217;43.960;10.954;2023-03-14T09:49:29;10.30;;;6.47;;
10343;SDS011;5217;43.960;10.954;2023-03-14T09:52:00;9.87;;;5.30;;
10343;SDS011;5217;43.960;10.954;2023-03-14T09:54:35;12.20;;;6.67;;
10343;SDS011;5217;43.960;10.954;2023-03-14T09:57:05;18.10;;;10.03;;
10343;SDS011;5217;43.960;10.954;2023-03-14T09:59:38;15.53;;;9.33;;
10343;SDS011;5217;43.960;10.954;2023-03-14T10:02:14;14.77;;;8.40;;
10343;SDS011;5217;43.960;10.954;2023-03-14T10:04:45;12.73;;;8.67;;
10343;SDS011;5217;43.960;10.954;2023-03-14T10:07:15;12.83;;;8.77;;
10343;SDS011;5217;43.960;10.954;2023-03-14T10:09:48;11.53;;;7.30;;
10343;SDS011;5217;43.960;10.954;2023-03-14T10:12:18;10.67;;;6.20;;
10343;SDS011;5217;43.960;10.954;2023-03-14T10:14:48;9.70;;;6.50;;
10343;SDS011;5217;43.960;10.954;2023-03-14T10:17:18;12.27;;;6.83;;
10343;SDS011;5217;43.960;10.954;2023-03-14T10:19:50;9.70;;;6.70;;
10343;SDS011;5217;43.960;10.954;2023-03-14T10:22:20;10.40;;;7.07;;
10343;SDS011;5217;43.960;10.954;2023-03-14T10:24:53;9.50;;;6.90;;
10343;SDS011;5217;43.960;10.954;2023-03-14T10:27:27;9.70;;;6.97;;
10343;SDS011;5217;43.960;10.954;2023-03-14T10:29:57;10.83;;;7.43;;
10343;SDS011;5217;43.960;10.954;2023-03-14T10:32:28;11.37;;;7.00;;
10343;SDS011;5217;43.960;10.954;2023-03-14T10:35:08;10.30;;;6.73;;
10343;SDS011;5217;43.960;10.954;2023-03-14T10:37:48;10.63;;;6.70;;
10343;SDS011;5217;43.960;10.954;2023-03-14T10:40:24;9.60;;;6.53;;
10343;SDS011;5217;43.960;10.954;2023-03-14T10:42:55;9.70;;;6.10;;
10343;SDS011;5217;43.960;10.954;2023-03-14T10:45:30;12.13;;;7.53;;
10343;SDS011;5217;43.960;10.954;2023-03-14T10:48:06;9.73;;;6.37;;
10343;SDS011;5217;43.960;10.954;2023-03-14T10:50:49;11.80;;;7.53;;
10343;SDS011;5217;43.960;10.954;2023-03-14T10:53:23;11.40;;;8.03;;
10343;SDS011;5217;43.960;10.954;2023-03-14T10:55:55;9.77;;;6.93;;
10343;SDS011;5217;43.960;10.954;2023-03-14T10:58:25;9.70;;;6.03;;
10343;SDS011;5217;43.960;10.954;2023-03-14T11:01:00;8.87;;;5.23;;
10343;SDS011;5217;43.960;10.954;2023-03-14T11:03:42;10.27;;;4.93;;
10343;SDS011;5217;43.960;10.954;2023-03-14T11:06:18;8.33;;;4.67;;
10343;SDS011;5217;43.960;10.954;2023-03-14T11:08:52;7.30;;;3.73;;
10343;SDS011;5217;43.960;10.954;2023-03-14T11:11:33;8.90;;;3.87;;
10343;SDS011;5217;43.960;10.954;2023-03-14T11:14:07;7.17;;;3.63;;
10343;SDS011;5217;43.960;10.954;2023-03-14T11:16:46;7.73;;;3.80;;
10343;SDS011;5217;43.960;10.954;2023-03-14T11:19:29;8.37;;;3.50;;
10343;SDS011;5217;43.960;10.954;2023-03-14T11:22:08;7.67;;;3.87;;
10343;SDS011;5217;43.960;10.954;2023-03-14T11:27:40;7.97;;;3.40;;
10343;SDS011;5217;43.960;10.954;2023-03-14T11:30:17;9.53;;;3.90;;
10343;SDS011;5217;43.960;10.954;2023-03-14T11:32:55;7.23;;;3.87;;
10343;SDS011;5217;43.960;10.954;2023-03-14T11:35:30;8.60;;;3.33;;
10343;SDS011;5217;43.960;10.954;2023-03-14T11:38:18;6.43;;;3.30;;
10343;SDS011;5217;43.960;10.954;2023-03-14T11:40:56;7.23;;;3.20;;
10343;SDS011;5217;43.960;10.954;2023-03-14T11:43:29;5.27;;;3.30;;
10343;SDS011;5217;43.960;10.954;2023-03-14T11:46:03;6.67;;;3.60;;
10343;SDS011;5217;43.960;10.954;2023-03-14T11:51:43;7.70;;;3.25;;
10343;SDS011;5217;43.960;10.954;2023-03-14T11:54:16;6.43;;;2.83;;
10343;SDS011;5217;43.960;10.954;2023-03-14T11:56:48;5.75;;;2.42;;
10343;SDS011;5217;43.960;10.954;2023-03-14T11:59:24;6.90;;;2.70;;
10343;SDS011;5217;43.960;10.954;2023-03-14T12:01:59;5.75;;;2.47;;
10343;SDS011;5217;43.960;10.954;2023-03-14T12:04:35;5.28;;;2.50;;
10343;SDS011;5217;43.960;10.954;2023-03-14T12:07:16;5.03;;;2.40;;
10343;SDS011;5217;43.960;10.954;2023-03-14T12:09:47;8.02;;;2.80;;
10343;SDS011;5217;43.960;10.954;2023-03-14T12:12:18;5.57;;;2.22;;
10343;SDS011;5217;43.960;10.954;2023-03-14T12:14:54;6.50;;;2.17;;
10343;SDS011;5217;43.960;10.954;2023-03-14T12:17:26;4.90;;;2.10;;
10343;SDS011;5217;43.960;10.954;2023-03-14T12:20:03;6.75;;;2.05;;
10343;SDS011;5217;43.960;10.954;2023-03-14T12:22:42;7.03;;;2.40;;
10343;SDS011;5217;43.960;10.954;2023-03-14T12:25:15;9.75;;;2.47;;
10343;SDS011;5217;43.960;10.954;2023-03-14T12:30:47;7.05;;;2.70;;
10343;SDS011;5217;43.960;10.954;2023-03-14T12:36:02;5.10;;;2.22;;
10343;SDS011;5217;43.960;10.954;2023-03-14T12:38:56;5.97;;;2.17;;
10343;SDS011;5217;43.960;10.954;2023-03-14T12:41:36;5.60;;;2.28;;
10343;SDS011;5217;43.960;10.954;2023-03-14T12:50:15;6.80;;;2.38;;
10343;SDS011;5217;43.960;10.954;2023-03-14T12:52:52;8.45;;;2.70;;
10343;SDS011;5217;43.960;10.954;2023-03-14T12:55:54;8.13;;;2.35;;
10343;SDS011;5217;43.960;10.954;2023-03-14T12:58:31;8.25;;;2.50;;
10343;SDS011;5217;43.960;10.954;2023-03-14T13:01:04;8.30;;;2.53;;
10343;SDS011;5217;43.960;10.954;2023-03-14T13:03:43;5.93;;;2.42;;
10343;SDS011;5217;43.960;10.954;2023-03-14T13:12:27;7.13;;;2.65;;
10343;SDS011;5217;43.960;10.954;2023-03-14T13:15:02;7.45;;;2.92;;
10343;SDS011;5217;43.960;10.954;2023-03-14T13:17:43;6.90;;;2.85;;
10343;SDS011;5217;43.960;10.954;2023-03-14T13:20:16;6.05;;;2.80;;
10343;SDS011;5217;43.960;10.954;2023-03-14T13:22:49;8.48;;;2.83;;
10343;SDS011;5217;43.960;10.954;2023-03-14T13:25:18;8.02;;;2.90;;
10343;SDS011;5217;43.960;10.954;2023-03-14T13:27:49;6.95;;;2.47;;
10343;SDS011;5217;43.960;10.954;2023-03-14T13:30:22;7.35;;;2.50;;
10343;SDS011;5217;43.960;10.954;2023-03-14T13:32:54;6.60;;;2.75;;
10343;SDS011;5217;43.960;10.954;2023-03-14T13:35:26;7.78;;;2.95;;
10343;SDS011;5217;43.960;10.954;2023-03-14T13:37:57;5.85;;;2.50;;
10343;SDS011;5217;43.960;10.954;2023-03-14T13:40:40;7.57;;;2.80;;
10343;SDS011;5217;43.960;10.954;2023-03-14T13:43:13;10.57;;;3.20;;
10343;SDS011;5217;43.960;10.954;2023-03-14T13:45:45;7.63;;;2.55;;
10343;SDS011;5217;43.960;10.954;2023-03-14T13:48:17;6.30;;;2.40;;
10343;SDS011;5217;43.960;10.954;2023-03-14T13:50:52;6.90;;;2.75;;
10343;SDS011;5217;43.960;10.954;2023-03-14T13:53:23;6.80;;;2.78;;
10343;SDS011;5217;43.960;10.954;2023-03-14T13:55:51;5.82;;;2.42;;
10343;SDS011;5217;43.960;10.954;2023-03-14T13:58:24;7.95;;;2.60;;
10343;SDS011;5217;43.960;10.954;2023-03-14T14:00:58;9.63;;;3.05;;
10343;SDS011;5217;43.960;10.954;2023-03-14T14:03:31;6.97;;;2.67;;
10343;SDS011;5217;43.960;10.954;2023-03-14T14:06:03;6.32;;;2.90;;
10343;SDS011;5217;43.960;10.954;2023-03-14T14:08:33;6.15;;;2.78;;
10343;SDS011;5217;43.960;10.954;2023-03-14T14:11:03;8.50;;;3.10;;
10343;SDS011;5217;43.960;10.954;2023-03-14T14:13:32;7.03;;;3.20;;
10343;SDS011;5217;43.960;10.954;2023-03-14T14:16:03;10.40;;;4.00;;
10343;SDS011;5217;43.960;10.954;2023-03-14T14:18:32;9.32;;;3.70;;
10343;SDS011;5217;43.960;10.954;2023-03-14T14:21:04;10.23;;;3.45;;
10343;SDS011;5217;43.960;10.954;2023-03-14T14:23:35;9.20;;;3.30;;
10343;SDS011;5217;43.960;10.954;2023-03-14T14:26:05;11.02;;;3.35;;
10343;SDS011;5217;43.960;10.954;2023-03-14T14:28:35;8.35;;;3.25;;
10343;SDS011;5217;43.960;10.954;2023-03-14T14:31:06;8.23;;;3.72;;
10343;SDS011;5217;43.960;10.954;2023-03-14T14:33:53;8.15;;;3.67;;
10343;SDS011;5217;43.960;10.954;2023-03-14T14:36:25;9.05;;;3.60;;
10343;SDS011;5217;43.960;10.954;2023-03-14T14:38:58;7.00;;;3.20;;
10343;SDS011;5217;43.960;10.954;2023-03-14T14:41:31;9.20;;;3.80;;
10343;SDS011;5217;43.960;10.954;2023-03-14T14:44:02;8.68;;;3.55;;
10343;SDS011;5217;43.960;10.954;2023-03-14T14:46:33;8.38;;;3.35;;
10343;SDS011;5217;43.960;10.954;2023-03-14T14:49:05;7.70;;;3.20;;
10343;SDS011;5217;43.960;10.954;2023-03-14T14:51:41;8.52;;;3.53;;
10343;SDS011;5217;43.960;10.954;2023-03-14T14:54:12;7.25;;;3.42;;
10343;SDS011;5217;43.960;10.954;2023-03-14T14:56:47;7.30;;;3.30;;
10343;SDS011;5217;43.960;10.954;2023-03-14T14:59:22;8.00;;;3.70;;
10343;SDS011;5217;43.960;10.954;2023-03-14T15:01:56;8.80;;;3.92;;
10343;SDS011;5217;43.960;10.954;2023-03-14T15:04:26;10.63;;;5.63;;
10343;SDS011;5217;43.960;10.954;2023-03-14T15:06:58;11.10;;;5.33;;
10343;SDS011;5217;43.960;10.954;2023-03-14T15:09:27;12.30;;;4.85;;
10343;SDS011;5217;43.960;10.954;2023-03-14T15:11:55;10.68;;;4.80;;
10343;SDS011;5217;43.960;10.954;2023-03-14T15:14:24;9.02;;;4.38;;
10343;SDS011;5217;43.960;10.954;2023-03-14T15:16:52;10.98;;;4.85;;
10343;SDS011;5217;43.960;10.954;2023-03-14T15:19:21;12.57;;;6.70;;
10343;SDS011;5217;43.960;10.954;2023-03-14T15:21:53;11.25;;;5.50;;
10343;SDS011;5217;43.960;10.954;2023-03-14T15:24:23;9.02;;;4.75;;
10343;SDS011;5217;43.960;10.954;2023-03-14T15:26:51;13.03;;;5.63;;
10343;SDS011;5217;43.960;10.954;2023-03-14T15:29:20;9.37;;;4.30;;
10343;SDS011;5217;43.960;10.954;2023-03-14T15:31:48;9.13;;;3.57;;
10343;SDS011;5217;43.960;10.954;2023-03-14T15:34:17;7.40;;;3.90;;
10343;SDS011;5217;43.960;10.954;2023-03-14T15:36:45;8.43;;;3.75;;
10343;SDS011;5217;43.960;10.954;2023-03-14T15:39:16;8.33;;;3.90;;